Time;durP1;ratioP1;P1;durP2;ratioP2;P2;SDS_P1;SDS_P2;PMS_P1;PMS_P2;Temp;Humidity;BMP_temperature;BMP_pressure;BME280_temperature;BME280_humidity;BME280_pressure;Samples;Min_cycle;Max_cycle;Signal;HPM_P1;HPM_P2
2022/06/20 00:00:02;;;;;;;11.68;3.60;;;27.00;40.30;;;;;;5036298;28;20151;-68
2022/06/20 00:02:28;;;;;;;9.13;3.65;;;26.90;40.20;;;;;;5036718;28;20036;-69
2022/06/20 00:04:55;;;;;;;10.65;3.80;;;26.80;39.90;;;;;;5036343;28;20398;-69
2022/06/20 00:07:22;;;;;;;8.73;3.55;;;26.80;40.30;;;;;;5036477;28;20029;-69
2022/06/20 00:09:47;;;;;;;8.95;3.35;;;26.80;40.40;;;;;;5034777;28;20031;-69
2022/06/20 00:12:24;;;;;;;8.90;3.55;;;26.80;40.20;;;;;;5036415;28;20029;-68
2022/06/20 00:14:56;;;;;;;6.75;3.80;;;26.70;39.50;;;;;;5036298;28;20418;-68
2022/06/20 00:17:22;;;;;;;7.18;3.67;;;26.60;40.60;;;;;;5036130;28;20037;-68
2022/06/20 00:19:48;;;;;;;7.50;3.50;;;26.60;40.50;;;;;;5034912;28;20033;-69
2022/06/20 00:22:14;;;;;;;7.50;3.40;;;26.60;40.50;;;;;;5036328;28;20025;-69
2022/06/20 00:24:40;;;;;;;6.40;3.05;;;26.60;40.60;;;;;;5036298;28;20486;-70
2022/06/20 00:27:09;;;;;;;9.35;3.60;;;26.60;40.70;;;;;;5036039;28;20038;-70
2022/06/20 00:29:39;;;;;;;6.45;3.50;;;26.60;40.40;;;;;;5035840;28;20032;-69
2022/06/20 00:32:06;;;;;;;6.20;3.17;;;26.60;39.90;;;;;;5036190;28;20474;-69
2022/06/20 00:34:33;;;;;;;5.97;3.15;;;26.60;40.20;;;;;;5035679;28;20104;-69
2022/06/20 00:36:59;;;;;;;5.85;3.17;;;26.60;40.20;;;;;;5035691;28;20033;-69
2022/06/20 00:39:25;;;;;;;5.72;2.90;;;26.50;39.90;;;;;;5035756;28;20155;-68
2022/06/20 00:41:51;;;;;;;6.93;2.80;;;26.40;40.00;;;;;;5035996;28;20486;-69
2022/06/20 00:44:25;;;;;;;7.75;3.22;;;26.40;40.00;;;;;;5035845;28;20071;-69
2022/06/20 00:46:57;;;;;;;5.82;2.80;;;26.30;40.00;;;;;;5034196;28;20028;-69
2022/06/20 00:49:25;;;;;;;7.40;2.80;;;26.30;40.20;;;;;;5035543;28;20029;-68
2022/06/20 00:51:56;;;;;;;5.32;3.10;;;26.30;40.10;;;;;;5035272;28;20210;-68
2022/06/20 00:54:34;;;;;;;5.93;3.10;;;26.30;40.00;;;;;;5035478;28;20036;-68
2022/06/20 00:57:27;;;;;;;6.88;3.13;;;26.20;40.20;;;;;;5035442;28;20033;-69
2022/06/20 01:00:04;;;;;;;10.75;3.30;;;26.20;39.40;;;;;;5035205;28;20478;-68
2022/06/20 01:02:38;;;;;;;8.45;3.25;;;26.20;40.90;;;;;;5035118;28;20030;-69
2022/06/20 01:05:20;;;;;;;7.07;3.42;;;26.20;40.50;;;;;;5035399;28;20410;-70
2022/06/20 01:07:57;;;;;;;10.27;3.15;;;26.20;40.40;;;;;;5035163;28;20052;-69
2022/06/20 01:10:25;;;;;;;7.07;2.72;;;26.10;40.80;;;;;;5034899;28;20030;-69
2022/06/20 01:12:58;;;;;;;5.03;2.75;;;26.10;40.90;;;;;;5035375;28;20045;-69
2022/06/20 01:15:27;;;;;;;4.28;2.58;;;26.00;40.90;;;;;;5035169;28;20026;-70
2022/06/20 01:17:53;;;;;;;7.40;2.67;;;25.90;40.80;;;;;;5035123;28;20487;-69
2022/06/20 01:20:19;;;;;;;5.90;2.70;;;25.90;40.80;;;;;;5034845;28;20029;-69
2022/06/20 01:23:06;;;;;;;7.88;3.10;;;25.80;40.70;;;;;;5033690;28;20035;-69
2022/06/20 01:25:38;;;;;;;5.70;2.78;;;25.80;39.90;;;;;;5035033;28;20032;-68
2022/06/20 01:28:07;;;;;;;9.32;3.15;;;25.70;39.70;;;;;;5033687;28;20083;-67
2022/06/20 01:30:37;;;;;;;7.63;2.72;;;25.80;40.80;;;;;;5034748;28;20033;-68
2022/06/20 01:33:04;;;;;;;9.02;2.95;;;25.70;41.50;;;;;;5033511;28;20064;-69
2022/06/20 01:38:15;;;;;;;6.68;3.10;;;25.70;40.40;;;;;;5034596;28;20406;-69
2022/06/20 01:42:18;;;;;;;4.35;2.28;;;25.60;41.10;;;;;;5034397;28;20029;-68
2022/06/20 01:43:32;;;;;;;5.47;2.65;;;25.60;41.00;;;;;;5034257;28;20076;-69
2022/06/20 01:46:00;;;;;;;11.77;2.85;;;25.60;41.00;;;;;;5033948;28;20022;-68
2022/06/20 01:48:29;;;;;;;5.50;2.80;;;25.60;41.00;;;;;;5034529;28;20522;-69
2022/06/20 01:50:56;;;;;;;6.90;2.65;;;25.70;41.30;;;;;;5034241;28;20060;-68
2022/06/20 01:53:26;;;;;;;6.97;2.60;;;25.60;40.90;;;;;;5034482;28;20544;-68
2022/06/20 01:55:53;;;;;;;5.95;2.70;;;25.50;41.30;;;;;;5034513;28;20037;-69
2022/06/20 01:58:42;;;;;;;7.03;3.10;;;25.50;41.20;;;;;;5034199;28;20022;-69
2022/06/20 02:01:08;;;;;;;6.53;3.33;;;25.60;41.30;;;;;;5034258;28;20374;-68
2022/06/20 02:03:38;;;;;;;7.43;3.05;;;25.50;41.10;;;;;;5034163;28;20470;-69
2022/06/20 02:06:05;;;;;;;8.35;3.20;;;25.50;41.40;;;;;;5034261;28;20087;-68
2022/06/20 02:08:32;;;;;;;6.72;3.15;;;25.40;41.60;;;;;;5034253;28;20036;-68
2022/06/20 02:11:08;;;;;;;7.07;2.85;;;25.40;41.70;;;;;;5033735;28;20167;-68
2022/06/20 02:13:38;;;;;;;10.45;2.90;;;25.40;41.80;;;;;;5034134;28;20036;-69
2022/06/20 02:16:07;;;;;;;6.07;2.78;;;25.50;42.10;;;;;;5034019;28;20425;-68
2022/06/20 02:18:37;;;;;;;5.80;2.95;;;25.40;42.00;;;;;;5033821;28;20481;-70
2022/06/20 02:21:06;;;;;;;4.80;2.75;;;25.30;42.00;;;;;;5033773;28;20033;-69
2022/06/20 02:23:36;;;;;;;5.78;3.00;;;25.40;42.40;;;;;;5033554;28;20022;-69
2022/06/20 02:26:06;;;;;;;7.18;3.08;;;25.40;42.30;;;;;;5034081;28;20478;-69
2022/06/20 02:28:45;;;;;;;5.63;3.05;;;25.50;42.40;;;;;;5033629;28;20100;-69
2022/06/20 02:31:11;;;;;;;5.35;2.85;;;25.50;42.50;;;;;;5032319;28;20044;-70
2022/06/20 02:33:37;;;;;;;7.65;2.75;;;25.50;42.20;;;;;;5033478;28;20028;-68
2022/06/20 02:36:05;;;;;;;6.00;3.28;;;25.40;42.30;;;;;;5033487;28;20040;-69
2022/06/20 02:38:32;;;;;;;10.80;3.00;;;25.40;42.10;;;;;;5033622;28;20017;-69
2022/06/20 02:40:59;;;;;;;8.15;3.17;;;25.40;42.60;;;;;;5033567;28;20029;-68
2022/06/20 02:43:47;;;;;;;9.27;2.85;;;25.30;42.80;;;;;;5033670;28;20025;-69
2022/06/20 02:46:19;;;;;;;6.18;3.00;;;25.20;43.00;;;;;;5032565;28;20032;-68
2022/06/20 02:48:49;;;;;;;8.63;3.15;;;25.20;43.10;;;;;;5030502;28;20022;-70
2022/06/20 02:51:20;;;;;;;7.65;3.45;;;25.20;43.10;;;;;;5033142;28;20124;-68
2022/06/20 02:54:09;;;;;;;6.15;3.15;;;25.20;43.30;;;;;;5033295;28;20025;-69
2022/06/20 02:56:42;;;;;;;6.75;3.25;;;25.20;43.00;;;;;;5032643;28;20061;-69
2022/06/20 02:59:19;;;;;;;8.90;3.00;;;25.30;43.30;;;;;;5033696;28;20033;-68
2022/06/20 03:01:55;;;;;;;7.63;3.22;;;25.30;43.40;;;;;;5033228;28;20021;-68
2022/06/20 03:04:22;;;;;;;7.20;2.85;;;25.30;43.40;;;;;;5033317;28;20079;-68
2022/06/20 03:06:59;;;;;;;5.57;3.15;;;25.30;43.60;;;;;;5033506;28;20030;-68
2022/06/20 03:09:31;;;;;;;6.20;2.92;;;25.30;43.50;;;;;;5033288;28;20112;-69
2022/06/20 03:11:57;;;;;;;6.35;3.17;;;25.30;43.60;;;;;;5033081;28;20104;-69
2022/06/20 03:14:36;;;;;;;5.25;2.50;;;25.30;43.50;;;;;;5033200;28;20060;-69
2022/06/20 03:17:05;;;;;;;5.20;2.80;;;25.30;43.70;;;;;;5033198;28;20025;-69
2022/06/20 03:19:33;;;;;;;8.07;3.53;;;25.30;43.60;;;;;;5033028;28;20032;-69
2022/06/20 03:22:08;;;;;;;8.35;3.47;;;25.20;43.70;;;;;;5033086;28;20029;-69
2022/06/20 03:24:35;;;;;;;7.28;3.40;;;25.10;43.80;;;;;;5033006;28;20026;-69
2022/06/20 03:27:03;;;;;;;10.82;3.10;;;25.10;43.80;;;;;;5033046;28;20025;-69
2022/06/20 03:29:29;;;;;;;6.72;3.22;;;25.00;43.70;;;;;;5033083;28;20094;-70
2022/06/20 03:31:54;;;;;;;5.75;3.20;;;25.10;43.70;;;;;;5018560;28;20462;-69
2022/06/20 03:34:24;;;;;;;8.32;3.03;;;25.10;43.60;;;;;;5013247;28;20019;-69
2022/06/20 03:36:51;;;;;;;9.27;3.35;;;25.10;43.30;;;;;;5013447;28;20034;-69
2022/06/20 03:39:19;;;;;;;8.80;3.38;;;25.10;43.80;;;;;;5018260;28;20558;-67
2022/06/20 03:41:47;;;;;;;8.00;3.38;;;25.10;44.00;;;;;;5019126;28;20026;-68
2022/06/20 03:44:30;;;;;;;7.90;3.30;;;25.10;43.70;;;;;;5013296;28;20109;-66
2022/06/20 03:47:07;;;;;;;7.40;3.35;;;25.10;42.40;;;;;;5013050;28;20491;-69
2022/06/20 03:49:40;;;;;;;10.77;4.05;;;25.00;43.70;;;;;;5012799;28;20033;-69
2022/06/20 03:52:26;;;;;;;;;;;25.00;43.80;;;;;;5017689;28;20049;-68
2022/06/20 03:55:09;;;;;;;8.93;4.03;;;25.00;43.90;;;;;;5020403;28;19908;-69
2022/06/20 03:57:58;;;;;;;11.90;3.77;;;25.00;42.40;;;;;;5032583;28;20032;-69
2022/06/20 04:00:50;;;;;;;8.20;4.05;;;25.00;42.40;;;;;;5032516;28;20045;-69
2022/06/20 04:03:22;;;;;;;11.13;3.90;;;24.90;42.60;;;;;;5032656;28;20463;-69
2022/06/20 04:05:51;;;;;;;6.18;3.40;;;24.90;44.10;;;;;;5032719;28;20052;-68
2022/06/20 04:10:57;;;;;;;9.00;4.03;;;24.90;44.00;;;;;;5033776;28;20469;-69
2022/06/20 04:11:16;;;;;;;10.18;3.78;;;25.00;42.80;;;;;;5036116;28;20041;-70
2022/06/20 04:13:56;;;;;;;6.15;3.25;;;25.00;44.30;;;;;;5036261;28;20386;-69
2022/06/20 04:16:30;;;;;;;9.23;4.22;;;25.00;44.30;;;;;;5036603;28;20535;-69
2022/06/20 04:19:11;;;;;;;6.97;3.50;;;24.90;44.40;;;;;;5027490;28;20018;-68
2022/06/20 04:21:45;;;;;;;7.90;3.60;;;24.90;44.20;;;;;;5036131;28;20028;-69
2022/06/20 04:24:26;;;;;;;8.38;3.28;;;24.80;42.50;;;;;;5036369;28;20063;-72
2022/06/20 04:26:58;;;;;;;7.95;3.47;;;24.80;42.40;;;;;;5036537;28;20112;-74
2022/06/20 04:29:27;;;;;;;7.97;3.55;;;24.80;44.00;;;;;;5037117;28;20033;-77
2022/06/20 04:32:09;;;;;;;7.25;3.20;;;24.80;44.00;;;;;;5028559;28;20026;-81
2022/06/20 04:34:50;;;;;;;8.55;3.88;;;24.80;42.40;;;;;;5036846;28;20017;-80
2022/06/20 04:37:25;;;;;;;5.70;3.38;;;24.80;42.30;;;;;;5039783;28;20089;-79
2022/06/20 04:40:38;;;;;;;7.53;3.10;;;24.90;42.30;;;;;;5046578;28;20417;-82
2022/06/20 04:43:21;;;;;;;7.30;3.45;;;24.90;42.20;;;;;;4984427;28;20106;-80
2022/06/20 04:46:01;;;;;;;9.80;3.20;;;24.80;43.60;;;;;;5041113;28;20068;-71
2022/06/20 04:48:28;;;;;;;4.40;3.13;;;24.80;42.10;;;;;;5041147;28;20094;-78
2022/06/20 04:51:00;;;;;;;9.35;3.08;;;24.80;43.70;;;;;;5041696;28;20107;-80
2022/06/20 04:53:48;;;;;;;8.65;2.97;;;24.70;44.00;;;;;;5039353;28;20505;-76
2022/06/20 04:56:56;;;;;;;12.35;3.47;;;24.80;42.40;;;;;;5035936;28;20036;-76
2022/06/20 04:59:27;;;;;;;8.00;3.10;;;24.80;42.60;;;;;;5035158;28;20052;-77
2022/06/20 05:01:55;;;;;;;5.97;3.00;;;24.80;44.40;;;;;;5035319;28;20021;-72
2022/06/20 05:04:39;;;;;;;4.65;2.90;;;24.80;44.00;;;;;;5036417;28;20029;-77
2022/06/20 05:07:25;;;;;;;6.05;2.80;;;24.80;42.40;;;;;;5038227;28;20056;-80
2022/06/20 05:10:14;;;;;;;4.25;2.45;;;24.80;44.00;;;;;;5037491;28;20026;-77
2022/06/20 05:13:12;;;;;;;6.90;2.63;;;24.90;43.80;;;;;;5035475;28;20123;-72
2022/06/20 05:15:48;;;;;;;8.68;2.58;;;25.10;41.90;;;;;;5036882;28;20182;-78
2022/06/20 05:18:35;;;;;;;12.40;3.13;;;25.20;43.30;;;;;;5037583;28;20386;-75
2022/06/20 05:21:31;;;;;;;5.35;2.70;;;25.50;41.70;;;;;;5037447;28;20025;-80
2022/06/20 05:24:07;;;;;;;8.43;2.92;;;26.00;42.60;;;;;;5039951;28;20057;-74
2022/06/20 05:26:38;;;;;;;7.28;3.35;;;26.50;40.90;;;;;;5039073;28;20091;-75
2022/06/20 05:29:10;;;;;;;11.90;3.70;;;27.00;41.50;;;;;;5037844;28;20461;-76
2022/06/20 05:31:44;;;;;;;8.35;2.90;;;27.50;40.60;;;;;;5037729;28;20041;-77
2022/06/20 05:34:16;;;;;;;6.72;3.13;;;27.90;40.20;;;;;;5027611;28;20013;-76
2022/06/20 05:37:12;;;;;;;7.13;3.30;;;28.20;38.70;;;;;;5030770;28;20055;-82
2022/06/20 05:40:00;;;;;;;9.10;3.22;;;28.60;38.40;;;;;;5035301;28;20014;-74
2022/06/20 05:42:25;;;;;;;9.10;3.35;;;29.00;38.30;;;;;;5035768;28;20059;-76
2022/06/20 05:44:51;;;;;;;6.35;2.95;;;29.30;37.80;;;;;;5037776;28;20030;-77
2022/06/20 05:47:24;;;;;;;11.93;3.20;;;29.70;37.70;;;;;;5036348;28;20028;-77
2022/06/20 05:50:00;;;;;;;8.43;3.15;;;29.90;37.10;;;;;;5034860;28;20033;-76
2022/06/20 05:52:30;;;;;;;10.50;2.80;;;29.90;37.10;;;;;;5035186;28;20056;-72
2022/06/20 05:55:18;;;;;;;8.30;3.03;;;30.10;36.90;;;;;;5034865;28;20034;-76
2022/06/20 05:57:48;;;;;;;9.15;3.22;;;30.40;36.50;;;;;;5038679;28;20590;-71
2022/06/20 06:00:21;;;;;;;9.77;3.63;;;30.60;36.30;;;;;;5038700;28;20049;-77
2022/06/20 06:02:53;;;;;;;7.72;3.10;;;30.80;36.40;;;;;;5035293;28;20378;-76
2022/06/20 06:05:31;;;;;;;8.18;2.78;;;31.10;36.20;;;;;;5034577;28;20022;-74
2022/06/20 06:08:21;;;;;;;9.35;3.20;;;31.10;36.20;;;;;;5034807;28;20032;-75
2022/06/20 06:10:52;;;;;;;7.35;3.13;;;31.20;35.80;;;;;;5034394;28;20548;-77
2022/06/20 06:13:36;;;;;;;7.40;3.00;;;31.10;35.80;;;;;;5016839;28;20057;-76
2022/06/20 06:16:47;;;;;;;8.10;3.22;;;31.10;36.00;;;;;;5012986;28;20056;-76
2022/06/20 06:19:44;;;;;;;12.13;3.45;;;31.20;35.90;;;;;;5018336;28;20096;-75
2022/06/20 06:22:21;;;;;;;9.65;3.20;;;31.60;35.40;;;;;;5034546;28;20029;-76
2022/06/20 06:24:50;;;;;;;11.68;3.13;;;31.50;35.70;;;;;;5014535;28;20026;-76
2022/06/20 06:27:24;;;;;;;7.85;3.00;;;31.60;34.90;;;;;;5014211;28;20033;-75
2022/06/20 06:30:16;;;;;;;9.55;3.53;;;31.70;34.80;;;;;;5014182;28;20101;-75
2022/06/20 06:32:48;;;;;;;7.75;3.40;;;31.80;35.30;;;;;;5014760;28;20058;-74
2022/06/20 06:35:39;;;;;;;5.72;3.08;;;32.00;34.80;;;;;;5026277;28;20032;-74
2022/06/20 06:38:20;;;;;;;7.53;3.15;;;31.90;34.60;;;;;;5033948;28;20021;-77
2022/06/20 06:40:51;;;;;;;8.13;3.37;;;32.00;34.60;;;;;;5033437;28;20422;-73
2022/06/20 06:43:38;;;;;;;10.43;3.10;;;32.20;34.30;;;;;;5034092;28;20025;-74
2022/06/20 06:46:11;;;;;;;16.35;3.88;;;32.20;34.50;;;;;;5038061;28;20223;-77
2022/06/20 06:49:07;;;;;;;13.07;3.72;;;32.30;34.20;;;;;;5041736;28;20017;-83
2022/06/20 06:51:41;;;;;;;8.73;3.17;;;32.40;34.00;;;;;;5039987;28;20072;-76
2022/06/20 06:54:14;;;;;;;;;;;32.50;33.70;;;;;;5037808;28;20025;-79
2022/06/20 06:57:11;;;;;;;7.70;3.10;;;32.60;33.40;;;;;;5036165;28;19916;-80
2022/06/20 06:59:44;;;;;;;11.07;3.60;;;32.60;34.30;;;;;;5012109;28;20048;-84
2022/06/20 07:02:32;;;;;;;10.55;3.88;;;32.70;34.20;;;;;;5024056;28;20360;-75
2022/06/20 07:05:29;;;;;;;8.35;3.58;;;32.80;33.00;;;;;;5015050;28;20379;-83
2022/06/20 07:08:14;;;;;;;7.25;3.30;;;33.00;33.40;;;;;;5014461;28;20398;-82
2022/06/20 07:10:45;;;;;;;9.50;3.35;;;33.10;33.10;;;;;;5014769;28;20174;-81
2022/06/20 07:13:22;;;;;;;13.45;3.25;;;33.20;32.70;;;;;;5025978;28;20455;-81
2022/06/20 07:15:53;;;;;;;10.60;4.07;;;33.20;32.70;;;;;;5024651;28;20030;-81
2022/06/20 07:18:31;;;;;;;8.27;3.85;;;33.30;32.60;;;;;;5026038;28;20022;-82
2022/06/20 07:20:57;;;;;;;8.48;3.33;;;33.40;32.70;;;;;;5014945;28;20030;-82
2022/06/20 07:23:23;;;;;;;125.63;16.42;;;33.50;32.10;;;;;;5014145;28;20014;-81
2022/06/20 07:25:50;;;;;;;38.78;7.88;;;33.50;32.30;;;;;;5014280;28;20391;-82
2022/06/20 07:28:22;;;;;;;20.20;4.82;;;33.50;32.00;;;;;;5014594;28;20025;-82
2022/06/20 07:30:58;;;;;;;14.65;4.07;;;33.50;32.00;;;;;;5013951;28;20100;-83
2022/06/20 07:33:51;;;;;;;16.88;3.70;;;33.50;32.00;;;;;;5014235;28;20029;-81
2022/06/20 07:36:22;;;;;;;11.00;3.40;;;33.50;32.20;;;;;;5014612;28;20022;-81
2022/06/20 07:39:22;;;;;;;10.77;3.42;;;33.50;31.90;;;;;;5014406;28;20033;-83
2022/06/20 07:41:54;;;;;;;67.57;9.63;;;33.50;32.00;;;;;;5008392;28;20479;-81
2022/06/20 07:44:25;;;;;;;24.25;5.57;;;33.50;32.00;;;;;;5017109;28;20127;-79
2022/06/20 07:46:58;;;;;;;14.50;4.05;;;33.50;31.90;;;;;;5022497;28;20119;-81
2022/06/20 07:49:29;;;;;;;;;;;33.40;32.10;;;;;;5022216;28;20021;-82
2022/06/20 07:51:58;;;;;;;16.25;3.53;;;33.40;32.10;;;;;;5016668;28;19957;-81
2022/06/20 07:54:36;;;;;;;15.88;3.65;;;33.40;32.20;;;;;;5016454;28;20394;-81
2022/06/20 07:57:18;;;;;;;36.10;6.18;;;33.50;31.80;;;;;;5017451;28;20033;-82
2022/06/20 08:00:10;;;;;;;57.83;10.75;;;33.40;32.20;;;;;;5018522;28;20018;-82
2022/06/20 08:03:05;;;;;;;10.38;3.70;;;33.30;32.20;;;;;;5019116;28;20076;-80
2022/06/20 08:05:37;;;;;;;11.00;3.53;;;33.30;32.10;;;;;;5025854;28;20049;-82
2022/06/20 08:08:19;;;;;;;8.88;3.15;;;33.20;32.00;;;;;;5020641;28;20026;-81
2022/06/20 08:11:39;;;;;;;13.80;3.70;;;33.20;32.30;;;;;;5017346;28;20030;-81
2022/06/20 08:14:03;;;;;;;10.85;3.00;;;33.00;32.60;;;;;;5017095;28;20038;-79
2022/06/20 08:16:31;;;;;;;10.10;3.08;;;33.00;32.20;;;;;;5017364;28;20025;-79
2022/06/20 08:18:59;;;;;;;12.90;3.15;;;32.90;32.60;;;;;;5016135;28;20042;-81
2022/06/20 08:21:41;;;;;;;11.18;3.03;;;32.80;32.30;;;;;;5016992;28;20030;-82
2022/06/20 08:24:18;;;;;;;13.90;3.63;;;32.60;32.80;;;;;;5016520;28;20455;-81
2022/06/20 08:26:52;;;;;;;11.95;3.47;;;32.50;33.10;;;;;;5016773;28;20075;-80
2022/06/20 08:29:25;;;;;;;13.50;3.45;;;32.40;32.80;;;;;;5016573;28;20101;-80
2022/06/20 08:31:55;;;;;;;10.68;2.92;;;32.40;33.00;;;;;;5017367;28;20048;-81
2022/06/20 08:34:59;;;;;;;9.52;3.15;;;32.20;32.80;;;;;;5017165;28;20033;-80
2022/06/20 08:37:41;;;;;;;8.73;3.10;;;32.20;33.20;;;;;;5016346;28;20052;-82
2022/06/20 08:40:49;;;;;;;24.65;4.80;;;32.10;33.00;;;;;;5017111;28;20018;-82
2022/06/20 08:43:29;;;;;;;12.50;2.90;;;32.00;33.40;;;;;;5015365;28;20026;-81
2022/06/20 08:46:13;;;;;;;5.53;2.38;;;31.90;33.20;;;;;;5016758;28;20424;-80
2022/06/20 08:49:13;;;;;;;6.80;2.72;;;31.80;32.70;;;;;;5018241;28;20121;-79
2022/06/20 08:52:07;;;;;;;11.25;3.22;;;31.70;32.80;;;;;;5017568;28;20448;-82
2022/06/20 08:54:41;;;;;;;8.88;2.85;;;31.60;33.00;;;;;;5017326;28;20044;-82
2022/06/20 08:57:15;;;;;;;5.30;2.90;;;31.50;32.60;;;;;;5019076;28;20037;-81
2022/06/20 08:59:57;;;;;;;7.68;2.78;;;31.40;32.20;;;;;;5017080;28;20029;-81
2022/06/20 09:02:56;;;;;;;4.63;2.35;;;31.40;31.80;;;;;;5017110;28;20033;-82
2022/06/20 09:05:28;;;;;;;5.45;2.40;;;31.40;31.10;;;;;;5019032;28;20033;-80
2022/06/20 09:08:25;;;;;;;9.82;2.50;;;31.40;31.30;;;;;;5018876;28;20068;-80
2022/06/20 09:11:31;;;;;;;5.53;2.50;;;31.40;31.50;;;;;;5019211;28;20487;-80
2022/06/20 09:14:14;;;;;;;19.77;3.20;;;31.40;31.60;;;;;;5021927;28;20052;-81
2022/06/20 09:16:47;;;;;;;6.22;2.42;;;31.30;32.50;;;;;;5018713;28;20026;-82
2022/06/20 09:19:31;;;;;;;6.65;2.70;;;31.30;31.90;;;;;;5017880;28;20390;-80
2022/06/20 09:22:09;;;;;;;11.00;2.80;;;31.30;31.40;;;;;;5017346;28;20034;-81
2022/06/20 09:24:47;;;;;;;5.15;2.67;;;31.30;31.30;;;;;;5016829;28;20110;-80
2022/06/20 09:27:23;;;;;;;7.18;3.33;;;31.40;31.80;;;;;;5016680;28;20030;-81
2022/06/20 09:30:05;;;;;;;6.32;2.95;;;31.40;31.20;;;;;;5016678;28;20026;-82
2022/06/20 09:33:05;;;;;;;6.28;2.72;;;31.50;31.70;;;;;;5015017;28;20165;-79
2022/06/20 09:35:36;;;;;;;6.07;2.92;;;31.50;31.30;;;;;;5016415;28;20030;-81
2022/06/20 09:38:14;;;;;;;7.20;2.58;;;31.40;31.50;;;;;;5015717;28;20061;-80
2022/06/20 09:40:44;;;;;;;9.88;3.00;;;31.40;31.30;;;;;;5016396;28;20037;-81
2022/06/20 09:43:36;;;;;;;7.07;2.70;;;31.50;31.30;;;;;;5016833;28;20029;-80
2022/06/20 09:46:21;;;;;;;4.40;2.65;;;31.40;31.60;;;;;;5018679;28;20568;-80
2022/06/20 09:49:11;;;;;;;8.48;2.70;;;31.50;31.30;;;;;;5026521;28;20140;-79
2022/06/20 09:51:49;;;;;;;7.57;2.30;;;31.50;31.40;;;;;;5024678;28;20054;-80
2022/06/20 09:54:33;;;;;;;9.30;2.60;;;31.50;31.10;;;;;;5020638;28;20085;-80
2022/06/20 09:57:30;;;;;;;7.88;2.80;;;31.50;31.30;;;;;;5022465;28;20040;-80
2022/06/20 09:59:56;;;;;;;5.47;2.38;;;31.50;31.40;;;;;;5024091;28;20034;-80
2022/06/20 10:02:29;;;;;;;9.10;3.08;;;31.60;31.80;;;;;;5029877;28;20340;-79
2022/06/20 10:04:57;;;;;;;4.97;3.10;;;31.60;31.00;;;;;;5028586;28;20022;-82
2022/06/20 10:07:50;;;;;;;10.00;2.70;;;31.60;31.00;;;;;;5017563;28;20022;-80
2022/06/20 10:10:49;;;;;;;7.25;2.35;;;31.60;30.60;;;;;;5022434;28;20061;-80
2022/06/20 10:13:41;;;;;;;5.47;2.63;;;31.70;30.40;;;;;;5003473;28;20475;-79
2022/06/20 10:16:30;;;;;;;23.13;10.63;;;31.70;30.30;;;;;;5014649;28;20022;-80
2022/06/20 10:19:21;;;;;;;21.77;8.23;;;31.70;30.20;;;;;;5015256;28;20030;-81
2022/06/20 10:22:02;;;;;;;8.30;3.50;;;31.70;30.40;;;;;;5017538;28;20033;-81
2022/06/20 10:24:31;;;;;;;9.60;5.05;;;31.70;30.50;;;;;;5019506;28;20026;-81
2022/06/20 10:27:15;;;;;;;10.02;3.22;;;31.70;30.30;;;;;;5019665;28;20032;-81
2022/06/20 10:29:47;;;;;;;6.13;2.80;;;31.70;30.50;;;;;;5018150;28;20037;-79
2022/06/20 10:32:19;;;;;;;9.93;3.30;;;31.70;30.70;;;;;;5014780;28;20034;-79
2022/06/20 10:35:28;;;;;;;6.72;3.20;;;31.70;30.60;;;;;;5014372;28;20379;-80
2022/06/20 10:38:28;;;;;;;5.63;3.15;;;31.80;30.80;;;;;;5014289;28;20025;-80
2022/06/20 10:41:04;;;;;;;9.45;3.10;;;31.90;31.10;;;;;;5013192;28;20379;-83
2022/06/20 10:43:52;;;;;;;9.55;3.13;;;32.00;30.60;;;;;;5019310;28;20030;-82
2022/06/20 10:46:22;;;;;;;8.50;3.22;;;32.10;30.70;;;;;;5016553;28;20113;-81
2022/06/20 10:49:12;;;;;;;6.80;2.97;;;32.10;30.50;;;;;;5015068;28;20030;-80
2022/06/20 10:52:03;;;;;;;6.28;2.90;;;32.20;30.90;;;;;;5014600;28;20130;-79
2022/06/20 10:54:54;;;;;;;7.93;3.63;;;32.20;31.00;;;;;;5015077;28;20059;-80
2022/06/20 10:57:55;;;;;;;9.85;2.92;;;32.20;31.60;;;;;;5018410;28;20060;-81
2022/06/20 11:00:24;;;;;;;9.48;2.90;;;32.30;32.20;;;;;;5022589;28;20105;-82
2022/06/20 11:03:15;;;;;;;8.60;2.90;;;32.30;32.20;;;;;;5015397;28;20018;-81
2022/06/20 11:05:46;;;;;;;6.65;3.00;;;32.40;32.70;;;;;;5014133;28;20109;-81
2022/06/20 11:08:29;;;;;;;14.75;3.55;;;32.40;32.20;;;;;;5014221;28;20033;-80
2022/06/20 11:11:21;;;;;;;8.27;3.25;;;32.50;32.60;;;;;;5014148;28;20037;-81
2022/06/20 11:13:54;;;;;;;9.32;2.80;;;32.50;32.20;;;;;;5014261;28;20030;-83
2022/06/20 11:16:25;;;;;;;;;;;32.50;32.00;;;;;;5014609;28;20058;-82
2022/06/20 11:19:14;;;;;;;11.15;3.20;;;32.60;32.30;;;;;;5012033;28;20441;-81
2022/06/20 11:21:43;;;;;;;5.85;2.63;;;32.60;32.40;;;;;;5013464;28;20105;-81
2022/06/20 11:24:28;;;;;;;7.43;2.85;;;32.70;32.10;;;;;;5013868;28;20042;-82
2022/06/20 11:27:16;;;;;;;10.57;2.63;;;32.70;31.90;;;;;;5014011;28;20022;-83
2022/06/20 11:30:06;;;;;;;8.63;2.83;;;32.70;31.80;;;;;;5013939;28;20422;-82
2022/06/20 11:32:38;;;;;;;8.43;2.53;;;32.80;33.00;;;;;;5015188;28;20092;-82
2022/06/20 11:35:39;;;;;;;9.35;2.78;;;32.80;31.70;;;;;;5015120;28;20030;-81
2022/06/20 11:38:24;;;;;;;10.00;2.28;;;32.80;31.70;;;;;;5013833;28;20022;-79
2022/06/20 11:40:54;;;;;;;13.02;2.42;;;32.80;31.80;;;;;;5013501;28;20026;-81
2022/06/20 11:44:06;;;;;;;9.10;2.30;;;32.80;32.00;;;;;;5013514;28;20068;-84
2022/06/20 11:46:35;;;;;;;14.73;2.70;;;32.80;31.60;;;;;;5013342;28;20041;-81
2022/06/20 11:49:25;;;;;;;6.07;2.50;;;32.80;31.20;;;;;;5013869;28;20537;-80
2022/06/20 11:51:55;;;;;;;10.60;2.75;;;32.80;31.60;;;;;;5013488;28;20068;-81
2022/06/20 11:54:44;;;;;;;10.90;2.90;;;32.70;32.90;;;;;;5013767;28;20021;-78
2022/06/20 11:57:33;;;;;;;9.85;2.28;;;32.70;31.60;;;;;;5014217;28;20029;-81
2022/06/20 12:00:01;;;;;;;6.65;2.47;;;32.80;32.90;;;;;;5013662;28;20022;-81
2022/06/20 12:02:33;;;;;;;7.25;2.35;;;32.80;32.20;;;;;;5013359;28;20037;-82
2022/06/20 12:05:23;;;;;;;10.13;2.40;;;32.80;31.30;;;;;;5014087;28;20030;-82
2022/06/20 12:08:19;;;;;;;8.68;2.50;;;32.90;31.30;;;;;;5013968;28;20452;-80
2022/06/20 12:10:56;;;;;;;12.15;2.63;;;32.90;31.30;;;;;;5018041;28;20033;-80
2022/06/20 12:13:53;;;;;;;7.72;2.40;;;32.90;32.00;;;;;;5017022;28;20386;-83
2022/06/20 12:16:47;;;;;;;9.55;2.13;;;32.90;31.00;;;;;;5012415;28;20037;-83
2022/06/20 12:25:38;;;;;;;6.05;2.00;;;32.90;32.80;;;;;;5013651;28;20036;-79
2022/06/20 12:28:25;;;;;;;5.47;2.15;;;32.90;31.50;;;;;;5013403;28;20117;-80
2022/06/20 12:30:57;;;;;;;7.28;2.22;;;32.90;31.80;;;;;;5016515;28;20514;-79
2022/06/20 12:33:23;;;;;;;12.25;2.25;;;33.00;31.90;;;;;;5016857;28;20483;-81
2022/06/20 12:35:55;;;;;;;5.65;1.90;;;33.00;31.70;;;;;;5015505;28;20125;-81
2022/06/20 12:38:52;;;;;;;11.07;2.05;;;32.90;31.70;;;;;;5017230;28;20038;-80
2022/06/20 12:41:21;;;;;;;5.00;2.03;;;32.90;32.10;;;;;;5015126;28;20025;-79
2022/06/20 12:44:31;;;;;;;7.72;1.80;;;32.90;32.20;;;;;;5016776;28;20363;-80
2022/06/20 12:47:23;;;;;;;5.95;1.60;;;32.90;32.70;;;;;;5016711;28;20032;-83
2022/06/20 12:50:04;;;;;;;7.55;2.20;;;32.80;32.90;;;;;;5016596;28;20446;-80
2022/06/20 12:53:07;;;;;;;3.50;1.67;;;32.80;33.20;;;;;;5016207;28;20045;-79
2022/06/20 12:55:52;;;;;;;5.43;2.17;;;32.80;33.10;;;;;;5017250;28;20068;-81
2022/06/20 12:58:35;;;;;;;4.20;2.08;;;32.80;32.80;;;;;;5019467;28;20037;-80
2022/06/20 13:01:23;;;;;;;7.45;2.20;;;32.70;33.00;;;;;;5024942;28;20070;-80
2022/06/20 13:04:26;;;;;;;10.27;2.10;;;32.80;32.70;;;;;;5018280;28;20029;-81
2022/06/20 13:07:24;;;;;;;6.88;1.67;;;32.80;32.80;;;;;;5016414;28;20089;-81
2022/06/20 13:10:10;;;;;;;6.85;2.20;;;32.80;32.40;;;;;;5014363;28;20395;-80
2022/06/20 13:12:57;;;;;;;6.10;2.00;;;32.80;32.60;;;;;;5014609;28;20133;-79
2022/06/20 13:15:51;;;;;;;4.78;1.90;;;32.80;32.70;;;;;;5015754;28;20030;-82
2022/06/20 13:19:01;;;;;;;7.07;1.90;;;32.90;33.00;;;;;;5015929;28;20155;-80
2022/06/20 13:21:48;;;;;;;4.63;2.25;;;32.90;33.00;;;;;;5016063;28;20533;-81
2022/06/20 13:24:19;;;;;;;6.75;1.92;;;33.00;33.80;;;;;;5016373;28;20026;-81
2022/06/20 13:27:04;;;;;;;5.60;1.80;;;33.00;33.00;;;;;;5015681;28;20117;-81
2022/06/20 13:30:04;;;;;;;6.45;2.00;;;33.10;32.50;;;;;;5015563;28;20076;-82
2022/06/20 13:32:35;;;;;;;3.28;1.67;;;33.00;32.40;;;;;;5016166;28;20080;-82
2022/06/20 13:35:35;;;;;;;5.65;1.80;;;32.90;32.50;;;;;;5015870;28;20095;-80
2022/06/20 13:38:23;;;;;;;7.47;2.10;;;32.90;32.20;;;;;;5016000;28;20030;-82
2022/06/20 13:41:06;;;;;;;6.57;1.92;;;32.90;32.60;;;;;;5013266;28;20388;-81
2022/06/20 13:43:48;;;;;;;9.77;2.00;;;32.90;32.60;;;;;;5015807;28;20026;-81
2022/06/20 13:46:28;;;;;;;11.82;2.50;;;32.90;32.40;;;;;;5014340;28;20041;-78
2022/06/20 13:48:59;;;;;;;9.40;2.60;;;33.00;32.80;;;;;;5015713;28;20021;-82
2022/06/20 13:51:38;;;;;;;3.63;1.92;;;33.10;32.90;;;;;;5056746;22;20057;-79
2022/06/20 13:54:26;;;;;;;8.85;2.63;;;33.10;32.00;;;;;;5054140;28;20029;-77